Why, Arizona
Current Conditions -  °F | °C
As of 9:56 AM on Friday 19 Dec 2014 (Local Time) from KGXF Reporting Station
Few Clouds Few Clouds  
Wind Chill: 11°   Ceiling: Unl
Heat Index: 11°   Visibility: 10mi
Dew Point:   Wind: 3mph
Humidity: 78%   Direction: 50°NE
Pressure: 30.26"   Gusts: NA
Location:  32.5298°N, 112.879°W
Report Text: KGXF 191656Z 05003KT 10SM FEW250 11/07 A3026 RMK AO2A CONTRAILS SLP246 T01060070
Loading
Personal Weather Stations






























Interactive Weather Map New forecast layout! Learn more

10-Day Weather Forecast

Advertisements
Track Severe Weather on mobile